createdAt,value
2018-07-27T05:05:58.828Z,23.01
2018-07-27T05:11:02.933Z,23.15
2018-07-27T05:16:10.146Z,23.20
2018-07-27T05:21:14.422Z,23.37
2018-07-27T05:26:28.079Z,23.59
2018-07-27T05:31:32.055Z,23.80
2018-07-27T05:36:40.865Z,23.91
2018-07-27T05:41:44.575Z,24.00
2018-07-27T05:46:48.036Z,24.12
2018-07-27T05:51:51.510Z,24.18
2018-07-27T05:56:54.873Z,24.28
2018-07-27T06:01:58.211Z,24.38
2018-07-27T06:07:01.554Z,24.50
2018-07-27T06:12:04.882Z,24.56
2018-07-27T06:17:08.262Z,24.71
2018-07-27T06:22:11.990Z,24.81
2018-07-27T06:27:15.349Z,24.93
2018-07-27T06:32:19.034Z,25.04
2018-07-27T06:37:22.760Z,25.03
2018-07-27T06:42:26.678Z,25.19
2018-07-27T06:47:30.011Z,25.33
2018-07-27T06:52:33.405Z,25.51
2018-07-27T06:57:36.735Z,25.59
2018-07-27T07:02:40.834Z,25.62
2018-07-27T07:07:44.202Z,25.73
2018-07-27T07:12:47.557Z,25.82
2018-07-27T07:17:50.902Z,25.79
2018-07-27T07:22:54.339Z,25.75
2018-07-27T07:27:57.691Z,25.89
2018-07-27T07:33:01.070Z,25.94
2018-07-27T07:38:04.406Z,25.40
2018-07-27T07:43:07.743Z,25.35
2018-07-27T07:48:11.079Z,25.37
2018-07-27T07:53:14.582Z,25.52
2018-07-27T07:58:17.915Z,25.61
2018-07-27T08:03:21.245Z,25.75
2018-07-27T08:08:24.570Z,25.90
2018-07-27T08:13:28.674Z,26.02
2018-07-27T08:18:32.006Z,25.68
2018-07-27T08:23:36.112Z,26.06
2018-07-27T08:28:42.259Z,26.33
2018-07-27T08:33:45.598Z,26.46
2018-07-27T08:38:48.935Z,26.49
2018-07-27T08:43:53.045Z,26.41
2018-07-27T08:48:56.406Z,26.33
2018-07-27T08:54:00.506Z,26.64
2018-07-27T08:59:03.839Z,26.57
2018-07-27T09:04:07.943Z,26.72
2018-07-27T09:09:11.531Z,26.69
2018-07-27T09:14:14.870Z,26.65
2018-07-27T09:19:18.194Z,26.86
2018-07-27T09:24:21.739Z,27.01
2018-07-27T09:29:24.887Z,26.97
2018-07-27T09:34:28.930Z,27.09
2018-07-27T09:39:32.302Z,27.10
2018-07-27T09:44:35.675Z,27.22
2018-07-27T09:49:39.202Z,27.21
2018-07-27T09:54:43.299Z,27.28
2018-07-27T09:59:46.632Z,27.49
2018-07-27T10:04:50.086Z,27.63
2018-07-27T10:09:53.535Z,27.65
2018-07-27T10:14:56.888Z,27.71
2018-07-27T10:20:00.460Z,27.68
2018-07-27T10:25:04.145Z,27.80
2018-07-27T10:30:07.583Z,27.83
2018-07-27T10:35:10.928Z,27.88
2018-07-27T10:40:14.289Z,28.01
2018-07-27T10:45:17.653Z,28.06
2018-07-27T10:50:21.073Z,28.08
2018-07-27T10:55:24.371Z,28.21
2018-07-27T11:00:27.731Z,28.23
2018-07-27T11:05:31.858Z,28.28
2018-07-27T11:10:35.982Z,28.32
2018-07-27T11:15:39.328Z,28.42
2018-07-27T11:20:42.769Z,28.54
2018-07-27T11:25:46.104Z,28.60
2018-07-27T11:30:49.449Z,28.70
2018-07-27T11:35:53.090Z,28.89
2018-07-27T11:40:56.418Z,29.00
2018-07-27T11:45:59.773Z,28.97
2018-07-27T11:51:03.111Z,29.22
2018-07-27T11:56:06.462Z,29.59
2018-07-27T12:01:09.811Z,30.05
2018-07-27T12:06:13.157Z,30.30
2018-07-27T12:11:16.502Z,30.53
2018-07-27T12:16:19.939Z,30.67
2018-07-27T12:21:23.402Z,30.89
2018-07-27T12:26:26.628Z,31.11
2018-07-27T12:31:29.962Z,31.38
2018-07-27T12:36:33.313Z,31.57
2018-07-27T12:41:37.707Z,31.71
2018-07-27T12:46:41.051Z,31.87
2018-07-27T12:51:44.496Z,31.95
2018-07-27T12:56:47.950Z,31.95
2018-07-27T13:01:51.489Z,32.05
2018-07-27T13:06:54.845Z,32.27
2018-07-27T13:11:58.391Z,32.40
2018-07-27T13:17:01.738Z,32.45
2018-07-27T13:22:05.162Z,32.68
2018-07-27T13:27:08.572Z,32.86
2018-07-27T13:32:12.008Z,33.02
2018-07-27T13:37:15.345Z,33.48
2018-07-27T13:42:18.687Z,33.71
2018-07-27T13:47:26.433Z,33.80
2018-07-27T13:52:29.842Z,33.36
2018-07-27T13:57:33.200Z,33.38
2018-07-27T14:02:36.541Z,33.92
2018-07-27T14:07:39.958Z,33.78
2018-07-27T14:12:43.988Z,34.44
2018-07-27T14:17:47.321Z,35.10
2018-07-27T14:22:50.664Z,35.21
2018-07-27T14:27:53.990Z,34.99
2018-07-27T14:32:57.335Z,35.48
2018-07-27T14:38:00.662Z,36.04
2018-07-27T14:43:04.012Z,36.47
2018-07-27T14:48:07.347Z,36.72
2018-07-27T14:53:10.682Z,37.34
2018-07-27T14:58:14.023Z,37.16
2018-07-27T15:03:17.400Z,35.42
2018-07-27T15:08:21.517Z,33.36
2018-07-27T15:13:24.858Z,35.11
2018-07-27T15:18:33.077Z,35.69
2018-07-27T15:23:37.254Z,36.33
2018-07-27T15:28:41.355Z,35.50
2018-07-27T15:33:45.007Z,36.06
2018-07-27T15:38:49.268Z,35.62
2018-07-27T15:43:52.798Z,34.34
2018-07-27T15:48:56.206Z,35.30
2018-07-27T15:53:59.547Z,35.50
2018-07-27T15:59:02.990Z,35.31
2018-07-27T16:04:07.234Z,36.59
2018-07-27T16:09:10.909Z,36.83
2018-07-27T16:14:14.380Z,36.66
2018-07-27T16:19:17.754Z,36.41
2018-07-27T16:24:21.094Z,36.36
2018-07-27T16:29:25.197Z,35.95
2018-07-27T16:34:28.546Z,36.72
2018-07-27T16:39:32.665Z,36.60
2018-07-27T16:44:36.770Z,36.97
2018-07-27T16:49:40.103Z,36.31
2018-07-27T16:54:44.210Z,35.89
2018-07-27T16:59:47.603Z,36.30
2018-07-27T17:04:50.911Z,36.66
2018-07-27T17:09:54.247Z,36.92
2018-07-27T17:14:57.586Z,36.78
2018-07-27T17:20:01.689Z,36.63
2018-07-27T17:25:05.056Z,36.86
2018-07-27T17:30:08.411Z,37.17
2018-07-27T17:35:11.787Z,37.22
2018-07-27T17:40:15.132Z,37.04
2018-07-27T17:45:18.467Z,36.92
2018-07-27T17:50:21.798Z,36.82
2018-07-27T17:55:26.926Z,36.64
2018-07-27T18:00:30.259Z,36.59
2018-07-27T18:05:40.112Z,36.32
2018-07-27T18:10:43.449Z,36.19
2018-07-27T18:15:47.547Z,35.98
2018-07-27T18:20:51.673Z,35.87
2018-07-27T18:26:08.526Z,35.63
2018-07-27T18:31:11.860Z,35.47
2018-07-27T18:36:22.381Z,35.14
2018-07-27T18:41:25.714Z,34.69
2018-07-27T18:46:35.168Z,34.32
2018-07-27T18:51:44.894Z,34.11
2018-07-27T18:56:48.223Z,33.87
2018-07-27T19:01:51.562Z,33.72
2018-07-27T19:06:54.922Z,33.49
2018-07-27T19:11:58.267Z,33.33
2018-07-27T19:17:01.632Z,33.32
2018-07-27T19:22:05.028Z,33.26
2018-07-27T19:27:09.123Z,32.70
2018-07-27T19:32:12.639Z,32.50
2018-07-27T19:37:16.279Z,32.57
2018-07-27T19:42:20.416Z,32.21
2018-07-27T19:47:23.778Z,32.11
2018-07-27T19:52:27.307Z,31.96
2018-07-27T19:57:30.637Z,31.87
2018-07-27T20:02:33.980Z,31.82
2018-07-27T20:07:38.079Z,31.70
2018-07-27T20:12:41.445Z,31.69
2018-07-27T20:17:45.617Z,31.59
2018-07-27T20:22:49.130Z,31.29
2018-07-27T20:27:55.383Z,31.15
2018-07-27T20:33:01.697Z,30.97
2018-07-27T20:38:07.369Z,30.97
2018-07-27T20:43:12.174Z,30.95
2018-07-27T20:48:20.649Z,30.89
2018-07-27T20:53:26.475Z,30.82
2018-07-27T20:58:30.202Z,30.80
2018-07-27T21:03:36.995Z,30.72
2018-07-27T21:08:40.362Z,30.66
2018-07-27T21:13:43.728Z,30.38
